createdAt,value
2022-08-16T00:02:33.004Z,66.10
2022-08-16T00:05:00.353Z,66.10
2022-08-16T00:07:29.022Z,66.10
2022-08-16T00:09:57.306Z,66.30
2022-08-16T00:12:24.624Z,66.10
2022-08-16T00:14:56.811Z,66.20
2022-08-16T00:17:25.210Z,66.20
2022-08-16T00:19:55.426Z,66.20
2022-08-16T00:22:25.041Z,66.20
2022-08-16T00:24:54.324Z,66.20
2022-08-16T00:27:22.499Z,66.20
2022-08-16T00:30:09.009Z,66.90
2022-08-16T00:32:38.798Z,66.00
2022-08-16T00:35:15.169Z,66.10
2022-08-16T00:37:58.285Z,66.10
2022-08-16T00:40:43.712Z,66.10
2022-08-16T00:43:42.725Z,66.40
2022-08-16T00:46:35.175Z,66.40
2022-08-16T00:49:17.799Z,66.40
2022-08-16T00:51:55.065Z,66.40
2022-08-16T00:54:25.355Z,66.10
2022-08-16T00:56:58.240Z,66.40
2022-08-16T00:59:29.070Z,66.30
2022-08-16T01:01:56.332Z,66.50
2022-08-16T01:04:29.878Z,66.30
2022-08-16T01:07:01.130Z,66.30
2022-08-16T01:09:34.346Z,66.50
2022-08-16T01:12:08.520Z,66.50
2022-08-16T01:14:43.603Z,66.60
2022-08-16T01:17:12.704Z,66.80
2022-08-16T01:19:51.611Z,66.60
2022-08-16T01:22:52.259Z,66.90
2022-08-16T01:25:34.469Z,67.10
2022-08-16T01:28:11.051Z,66.80
2022-08-16T01:30:52.133Z,67.00
2022-08-16T01:33:20.487Z,67.00
2022-08-16T01:36:02.618Z,67.00
2022-08-16T01:38:47.074Z,67.30
2022-08-16T01:41:21.052Z,67.10
2022-08-16T01:43:53.836Z,67.20
2022-08-16T01:46:38.203Z,67.00
2022-08-16T01:49:15.752Z,67.10
2022-08-16T01:51:47.926Z,67.20
2022-08-16T01:54:31.162Z,67.20
2022-08-16T01:56:59.633Z,67.30
2022-08-16T01:59:26.881Z,67.20
2022-08-16T02:01:59.896Z,67.30
2022-08-16T02:04:48.747Z,67.40
2022-08-16T02:07:19.010Z,67.40
2022-08-16T02:09:58.883Z,67.30
2022-08-16T02:12:49.980Z,67.40
2022-08-16T02:15:25.495Z,67.50
2022-08-16T02:17:56.319Z,67.70
2022-08-16T02:20:26.198Z,67.60
2022-08-16T02:22:56.649Z,67.60
2022-08-16T02:25:24.471Z,67.50
2022-08-16T02:27:51.679Z,67.70
2022-08-16T02:30:36.760Z,67.70
2022-08-16T02:33:11.793Z,67.60
2022-08-16T02:35:53.836Z,67.60
2022-08-16T02:38:24.172Z,68.50
2022-08-16T02:40:51.402Z,67.70
2022-08-16T02:43:21.769Z,67.70
2022-08-16T02:45:56.917Z,67.60
2022-08-16T02:48:29.282Z,67.80
2022-08-16T02:51:10.283Z,67.80
2022-08-16T02:53:43.198Z,67.90
2022-08-16T02:56:12.269Z,68.30
2022-08-16T02:58:44.184Z,68.40
2022-08-16T03:01:24.939Z,68.70
2022-08-16T03:04:39.168Z,68.80
2022-08-16T03:06:56.638Z,68.80
2022-08-16T03:09:38.567Z,68.70
2022-08-16T03:12:06.451Z,68.80
2022-08-16T03:14:34.727Z,69.00
2022-08-16T03:17:04.044Z,69.00
2022-08-16T03:19:48.319Z,69.10
2022-08-16T03:22:28.327Z,69.00
2022-08-16T03:25:02.001Z,69.20
2022-08-16T03:27:32.791Z,69.50
2022-08-16T03:30:16.565Z,69.10
2022-08-16T03:32:51.912Z,69.40
2022-08-16T03:35:33.480Z,69.40
2022-08-16T03:38:35.042Z,69.50
2022-08-16T03:40:58.529Z,69.60
2022-08-16T03:43:51.224Z,69.60
2022-08-16T03:46:47.537Z,69.70
2022-08-16T03:49:04.742Z,69.70
2022-08-16T03:51:31.451Z,69.60
2022-08-16T03:54:05.026Z,69.60
2022-08-16T03:56:57.765Z,69.80
2022-08-16T03:59:30.318Z,69.80
2022-08-16T04:02:01.562Z,69.90
2022-08-16T04:04:33.463Z,69.90
2022-08-16T04:07:05.817Z,69.90
2022-08-16T04:09:38.175Z,70.00
2022-08-16T04:12:11.121Z,70.00
2022-08-16T04:14:53.422Z,70.10
2022-08-16T04:17:21.525Z,70.20
2022-08-16T04:19:51.592Z,70.40
2022-08-16T04:22:22.721Z,70.70
2022-08-16T04:24:59.503Z,71.00
2022-08-16T04:27:32.018Z,71.10
2022-08-16T04:30:02.856Z,71.30
2022-08-16T04:32:32.237Z,71.60
2022-08-16T04:35:02.254Z,71.70
2022-08-16T04:37:42.258Z,71.80
2022-08-16T04:40:21.917Z,71.60
2022-08-16T04:42:53.280Z,71.60
2022-08-16T04:45:24.506Z,71.70
2022-08-16T04:48:08.049Z,71.90
2022-08-16T04:50:44.325Z,71.90
2022-08-16T04:53:15.709Z,71.80
2022-08-16T04:55:44.528Z,72.00
2022-08-16T04:58:43.633Z,72.00
2022-08-16T05:01:01.370Z,72.20
2022-08-16T05:03:30.932Z,72.10
2022-08-16T05:05:59.840Z,72.30
2022-08-16T05:08:34.178Z,72.30
2022-08-16T05:11:17.925Z,72.60
2022-08-16T05:13:47.522Z,72.60
2022-08-16T05:16:27.489Z,72.80
2022-08-16T05:19:11.708Z,73.00
2022-08-16T05:21:51.537Z,72.70
2022-08-16T05:24:24.549Z,72.70
2022-08-16T05:26:52.124Z,72.40
2022-08-16T05:29:20.619Z,72.60
2022-08-16T05:32:01.738Z,72.70
2022-08-16T05:34:29.756Z,72.70
2022-08-16T05:36:57.422Z,72.70
2022-08-16T05:39:33.274Z,72.70
2022-08-16T05:42:00.767Z,72.70
2022-08-16T05:44:28.465Z,73.40
2022-08-16T05:47:00.216Z,72.60
2022-08-16T05:49:38.596Z,72.70
2022-08-16T05:52:10.566Z,72.60
2022-08-16T05:54:40.072Z,72.80
2022-08-16T05:57:14.009Z,72.70
2022-08-16T05:59:42.054Z,72.90
2022-08-16T06:02:09.984Z,73.00
2022-08-16T06:04:37.992Z,73.20
2022-08-16T06:07:24.382Z,73.30
2022-08-16T06:09:59.883Z,73.30
2022-08-16T06:12:29.647Z,73.40
2022-08-16T06:15:09.641Z,73.70
2022-08-16T06:17:43.203Z,73.80
2022-08-16T06:20:23.733Z,73.70
2022-08-16T06:22:57.751Z,74.00
2022-08-16T06:25:36.474Z,73.90
2022-08-16T06:28:09.299Z,73.90
2022-08-16T06:30:43.972Z,73.90
2022-08-16T06:33:22.392Z,74.00
2022-08-16T06:35:55.334Z,73.80
2022-08-16T06:38:33.512Z,73.90
2022-08-16T06:41:13.589Z,74.20
2022-08-16T06:43:42.028Z,74.40
2022-08-16T06:46:34.014Z,74.50
2022-08-16T06:49:10.901Z,74.10
2022-08-16T06:51:45.982Z,74.50
2022-08-16T06:54:18.842Z,74.20
2022-08-16T06:56:45.788Z,73.90
2022-08-16T06:59:14.518Z,73.40
2022-08-16T07:01:53.742Z,72.80
2022-08-16T07:04:31.612Z,72.20
2022-08-16T07:07:03.015Z,71.50
2022-08-16T07:09:30.664Z,70.70
2022-08-16T07:12:03.586Z,70.20
2022-08-16T07:14:33.559Z,69.70
2022-08-16T07:17:08.434Z,68.80
2022-08-16T07:20:02.850Z,68.10
2022-08-16T07:22:50.778Z,67.50
2022-08-16T07:25:24.256Z,66.70
2022-08-16T07:27:51.724Z,66.00
2022-08-16T07:30:45.414Z,65.20
2022-08-16T07:33:15.934Z,64.40
2022-08-16T07:35:49.427Z,63.60
2022-08-16T07:38:19.867Z,62.80
2022-08-16T07:41:01.460Z,62.20
2022-08-16T07:43:30.197Z,61.70
2022-08-16T07:46:01.349Z,61.20
2022-08-16T07:48:29.648Z,60.50
2022-08-16T07:50:59.262Z,59.90
2022-08-16T07:53:31.376Z,59.60
2022-08-16T07:56:02.228Z,59.10
2022-08-16T07:58:36.430Z,59.00
2022-08-16T08:01:10.911Z,58.70
2022-08-16T08:03:49.353Z,58.40
2022-08-16T08:06:24.926Z,58.20
2022-08-16T08:08:57.171Z,57.10
2022-08-16T08:11:24.959Z,56.80
2022-08-16T08:14:02.931Z,56.30
2022-08-16T08:16:33.302Z,55.90
2022-08-16T08:19:03.302Z,55.60
2022-08-16T08:22:00.926Z,55.30
2022-08-16T08:24:32.316Z,54.50
2022-08-16T08:27:03.335Z,54.20
2022-08-16T08:29:36.855Z,53.40
2022-08-16T08:32:58.423Z,53.10
2022-08-16T08:35:03.213Z,52.70
2022-08-16T08:37:54.116Z,52.50
2022-08-16T08:40:27.630Z,51.10
2022-08-16T08:43:12.462Z,51.30
2022-08-16T08:45:55.533Z,50.00
2022-08-16T08:48:34.219Z,50.30
2022-08-16T08:51:09.211Z,49.80
2022-08-16T08:53:46.712Z,49.60
2022-08-16T08:56:29.934Z,49.00
2022-08-16T08:59:20.305Z,48.80
2022-08-16T09:01:57.639Z,48.40
2022-08-16T09:04:27.276Z,48.10
2022-08-16T09:06:55.616Z,47.80
2022-08-16T09:09:23.789Z,47.50
2022-08-16T09:12:04.415Z,47.40
2022-08-16T09:14:51.217Z,46.90
2022-08-16T09:17:45.295Z,47.00
2022-08-16T09:20:13.710Z,46.90
2022-08-16T09:22:42.432Z,46.50
2022-08-16T09:25:13.004Z,46.00
2022-08-16T09:27:57.144Z,46.00
2022-08-16T09:30:34.369Z,46.00
2022-08-16T09:33:06.798Z,45.60
2022-08-16T09:35:38.860Z,45.40
2022-08-16T09:38:08.407Z,45.30
2022-08-16T09:40:42.895Z,45.00
2022-08-16T09:43:46.395Z,44.60
2022-08-16T09:46:33.426Z,43.90
2022-08-16T09:48:56.389Z,44.10
2022-08-16T09:51:26.157Z,44.10
2022-08-16T09:53:57.687Z,44.40
2022-08-16T09:56:33.819Z,44.20
2022-08-16T09:59:04.837Z,43.30
2022-08-16T10:01:34.852Z,43.70
2022-08-16T10:04:04.566Z,43.70
2022-08-16T10:06:40.833Z,42.80
2022-08-16T10:09:15.020Z,42.90
2022-08-16T10:12:11.823Z,42.50
2022-08-16T10:14:46.438Z,42.10
2022-08-16T10:17:13.529Z,42.10
2022-08-16T10:19:41.680Z,41.70
2022-08-16T10:22:12.811Z,41.30
2022-08-16T10:24:40.643Z,41.00
2022-08-16T10:27:27.561Z,40.50
2022-08-16T10:30:24.969Z,40.60
2022-08-16T10:32:53.219Z,40.80
2022-08-16T10:35:19.918Z,40.70
2022-08-16T10:37:46.585Z,40.40
2022-08-16T10:40:28.536Z,40.30
2022-08-16T10:42:59.762Z,39.90
2022-08-16T10:45:27.399Z,39.80
2022-08-16T10:48:00.698Z,39.50
2022-08-16T10:50:31.460Z,39.30
2022-08-16T10:52:58.994Z,39.10
2022-08-16T10:55:45.377Z,39.20
2022-08-16T10:58:17.057Z,39.90
2022-08-16T11:00:46.061Z,39.10
2022-08-16T11:06:05.912Z,39.20
2022-08-16T11:08:39.681Z,39.60
2022-08-16T11:11:11.781Z,39.20
2022-08-16T11:14:06.169Z,39.70
2022-08-16T11:19:20.296Z,40.10
2022-08-16T11:24:42.345Z,40.00
2022-08-16T11:27:35.299Z,39.90
2022-08-16T11:30:04.307Z,40.10
2022-08-16T11:32:37.235Z,40.60
2022-08-16T11:35:16.120Z,40.70
2022-08-16T11:38:46.373Z,40.70
2022-08-16T11:40:46.899Z,40.40
2022-08-16T11:43:23.644Z,41.00
2022-08-16T11:45:54.245Z,41.20
2022-08-16T11:48:25.942Z,41.20
2022-08-16T11:50:53.426Z,41.10
2022-08-16T11:53:22.027Z,41.60
2022-08-16T11:55:54.730Z,41.60
2022-08-16T11:58:24.567Z,41.70
2022-08-16T12:00:53.464Z,41.80
2022-08-16T12:03:31.528Z,41.90
2022-08-16T12:06:25.438Z,42.20
2022-08-16T12:09:00.920Z,42.20
2022-08-16T12:11:31.684Z,42.10
2022-08-16T12:14:00.618Z,42.50
2022-08-16T12:16:31.426Z,42.80
2022-08-16T12:19:02.113Z,42.80
2022-08-16T12:21:57.732Z,43.10
2022-08-16T12:24:15.449Z,43.10
2022-08-16T12:26:42.725Z,43.50
2022-08-16T12:29:10.474Z,43.30
2022-08-16T12:31:37.227Z,43.60
2022-08-16T12:34:28.670Z,43.60
2022-08-16T12:36:56.254Z,44.10
2022-08-16T12:39:23.543Z,44.20
2022-08-16T12:41:56.326Z,43.90
2022-08-16T12:44:26.498Z,44.20
2022-08-16T12:47:24.281Z,44.10
2022-08-16T12:49:50.930Z,44.40
2022-08-16T12:52:33.473Z,44.40
2022-08-16T12:55:02.962Z,44.50
2022-08-16T12:57:36.631Z,44.20
2022-08-16T13:00:10.880Z,44.10
2022-08-16T13:02:37.804Z,44.00
2022-08-16T13:05:07.041Z,44.10
2022-08-16T13:07:37.547Z,44.20
2022-08-16T13:10:21.262Z,44.20
2022-08-16T13:13:01.125Z,44.30
2022-08-16T13:15:29.016Z,44.20
2022-08-16T13:17:57.802Z,44.30
2022-08-16T13:20:29.029Z,44.20
2022-08-16T13:23:06.491Z,44.30
2022-08-16T13:25:35.940Z,44.50
2022-08-16T13:28:16.812Z,44.60
2022-08-16T13:30:54.287Z,44.40
2022-08-16T13:33:31.589Z,44.20
2022-08-16T13:36:00.365Z,44.30
2022-08-16T13:38:36.464Z,44.40
2022-08-16T13:41:09.589Z,44.70
2022-08-16T13:43:37.878Z,44.60
2022-08-16T13:46:05.456Z,44.80
2022-08-16T13:48:43.317Z,44.90
2022-08-16T13:51:15.807Z,45.00
2022-08-16T13:53:45.694Z,45.00
2022-08-16T13:56:21.970Z,45.30
2022-08-16T13:58:54.551Z,45.30
2022-08-16T14:01:22.441Z,45.50
2022-08-16T14:03:50.198Z,45.30
2022-08-16T14:06:21.711Z,45.10
2022-08-16T14:08:50.291Z,44.90
2022-08-16T14:11:26.408Z,44.90
2022-08-16T14:13:55.742Z,45.00
2022-08-16T14:16:24.539Z,44.80
2022-08-16T14:19:00.713Z,44.70
2022-08-16T14:21:35.370Z,44.80
2022-08-16T14:24:07.829Z,44.90
2022-08-16T14:26:43.062Z,45.00
2022-08-16T14:29:10.598Z,45.10
2022-08-16T14:31:39.708Z,45.30
2022-08-16T14:34:07.581Z,45.70
2022-08-16T14:36:38.252Z,45.70
2022-08-16T14:39:09.214Z,45.60
2022-08-16T14:41:36.819Z,45.60
2022-08-16T14:44:06.734Z,45.40
2022-08-16T14:46:33.401Z,45.30
2022-08-16T14:49:01.778Z,45.40
2022-08-16T14:51:28.999Z,45.40
2022-08-16T14:53:56.756Z,45.60
2022-08-16T14:56:38.438Z,45.50
2022-08-16T14:59:09.016Z,45.50
2022-08-16T15:01:58.155Z,45.60
2022-08-16T15:04:37.848Z,45.50
2022-08-16T15:07:10.116Z,45.40
2022-08-16T15:09:44.576Z,45.30
2022-08-16T15:12:33.371Z,45.40
2022-08-16T15:15:01.680Z,45.20
2022-08-16T15:17:33.951Z,45.20
2022-08-16T15:20:08.786Z,45.00
2022-08-16T15:22:44.084Z,44.90
2022-08-16T15:25:29.237Z,45.10
2022-08-16T15:27:57.251Z,45.00
2022-08-16T15:30:59.371Z,45.30
2022-08-16T15:33:19.901Z,45.90
2022-08-16T15:35:49.947Z,45.10
2022-08-16T15:38:55.206Z,44.90
2022-08-16T15:41:04.954Z,44.80
2022-08-16T15:43:39.139Z,44.80
2022-08-16T15:46:35.705Z,44.70
2022-08-16T15:49:09.652Z,44.70
2022-08-16T15:51:39.163Z,44.90
2022-08-16T15:54:21.213Z,44.70
2022-08-16T15:56:54.954Z,45.40
2022-08-16T15:59:24.309Z,44.80
2022-08-16T16:01:55.933Z,44.50
2022-08-16T16:04:25.649Z,44.50
2022-08-16T16:06:55.153Z,44.60
2022-08-16T16:09:34.553Z,44.60
2022-08-16T16:12:16.262Z,44.50
2022-08-16T16:14:51.889Z,44.40
2022-08-16T16:17:18.519Z,44.50
2022-08-16T16:19:45.182Z,45.00
2022-08-16T16:22:17.335Z,44.50
2022-08-16T16:24:46.940Z,44.50
2022-08-16T16:27:14.094Z,44.80
2022-08-16T16:29:42.788Z,44.40
2022-08-16T16:32:13.626Z,44.60
2022-08-16T16:34:43.091Z,44.50
2022-08-16T16:37:10.358Z,44.70
2022-08-16T16:39:37.607Z,44.50
2022-08-16T16:42:05.314Z,44.50
2022-08-16T16:44:36.232Z,44.60
2022-08-16T16:47:04.096Z,44.50
2022-08-16T16:49:32.843Z,44.80
2022-08-16T16:52:06.577Z,44.70
2022-08-16T16:54:35.401Z,44.70
2022-08-16T16:57:02.287Z,44.60
2022-08-16T16:59:29.208Z,44.50
2022-08-16T17:02:38.585Z,44.40
2022-08-16T17:04:46.045Z,44.60
2022-08-16T17:07:14.001Z,44.80
2022-08-16T17:09:41.465Z,44.90
2022-08-16T17:12:22.665Z,44.90
2022-08-16T17:14:53.814Z,44.90
2022-08-16T17:17:20.921Z,44.90
2022-08-16T17:19:48.171Z,45.10
2022-08-16T17:22:19.814Z,45.10
2022-08-16T17:24:50.946Z,45.00
2022-08-16T17:27:37.327Z,45.30
2022-08-16T17:30:16.052Z,45.40
2022-08-16T17:32:48.725Z,45.70
2022-08-16T17:35:24.128Z,46.00
2022-08-16T17:38:04.567Z,45.90
2022-08-16T17:40:46.883Z,46.00
2022-08-16T17:43:23.455Z,46.20
2022-08-16T17:45:50.347Z,45.90
2022-08-16T17:48:17.721Z,46.00
2022-08-16T17:50:45.371Z,46.10
2022-08-16T17:53:14.090Z,46.00
2022-08-16T17:55:43.011Z,46.20
2022-08-16T17:58:23.243Z,46.40
2022-08-16T18:00:53.161Z,46.40
2022-08-16T18:04:02.360Z,46.40
2022-08-16T18:06:13.239Z,46.50
2022-08-16T18:08:41.384Z,46.60
2022-08-16T18:11:12.097Z,46.70
2022-08-16T18:13:42.785Z,46.70
2022-08-16T18:16:09.623Z,46.80
2022-08-16T18:18:36.301Z,46.90
2022-08-16T18:21:22.202Z,47.10
2022-08-16T18:23:48.859Z,47.10
2022-08-16T18:26:15.566Z,47.30
2022-08-16T18:28:42.549Z,48.30
2022-08-16T18:31:09.503Z,47.80
2022-08-16T18:33:43.303Z,47.80
2022-08-16T18:36:20.396Z,48.00
2022-08-16T18:38:49.577Z,47.90
2022-08-16T18:41:17.090Z,48.20
2022-08-16T18:44:23.867Z,48.40
2022-08-16T18:46:30.588Z,48.50
2022-08-16T18:48:57.254Z,48.40
2022-08-16T18:51:25.454Z,48.80
2022-08-16T18:53:52.895Z,48.80
2022-08-16T18:56:19.762Z,48.90
2022-08-16T18:58:46.460Z,49.00
2022-08-16T19:01:13.309Z,49.00
2022-08-16T19:03:40.202Z,49.00
2022-08-16T19:06:11.328Z,49.10
2022-08-16T19:08:41.378Z,49.30
2022-08-16T19:11:11.462Z,49.40
2022-08-16T19:13:40.337Z,49.60
2022-08-16T19:16:07.315Z,49.60
2022-08-16T19:18:36.618Z,49.60
2022-08-16T19:21:04.931Z,49.70
2022-08-16T19:23:34.329Z,49.70
2022-08-16T19:26:10.891Z,49.90
2022-08-16T19:28:58.398Z,50.10
2022-08-16T19:31:30.987Z,50.10
2022-08-16T19:33:57.999Z,50.10
2022-08-16T19:36:35.426Z,50.10
2022-08-16T19:39:08.786Z,50.20
2022-08-16T19:41:42.771Z,50.30
2022-08-16T19:44:09.942Z,50.30
2022-08-16T19:46:38.050Z,50.30
2022-08-16T19:49:05.500Z,50.40
2022-08-16T19:51:32.534Z,50.60
2022-08-16T19:53:59.491Z,50.70
2022-08-16T19:56:26.548Z,50.80
2022-08-16T19:59:18.079Z,51.00
2022-08-16T20:01:42.589Z,51.10
2022-08-16T20:04:13.394Z,51.20
2022-08-16T20:06:41.413Z,51.30
2022-08-16T20:09:08.365Z,51.70
2022-08-16T20:11:37.167Z,51.70
2022-08-16T20:14:04.236Z,52.10
2022-08-16T20:16:31.155Z,51.90
2022-08-16T20:18:57.904Z,51.90
2022-08-16T20:21:24.593Z,52.00
2022-08-16T20:23:51.438Z,52.10
2022-08-16T20:26:18.742Z,52.20
2022-08-16T20:28:54.116Z,52.30
2022-08-16T20:31:25.491Z,52.60
2022-08-16T20:33:53.094Z,53.00
2022-08-16T20:36:19.883Z,52.90
2022-08-16T20:38:47.382Z,53.00
2022-08-16T20:41:15.220Z,53.20
2022-08-16T20:43:41.915Z,53.30
2022-08-16T20:46:08.608Z,53.50
2022-08-16T20:48:35.298Z,53.70
2022-08-16T20:51:02.040Z,53.70
2022-08-16T20:53:28.733Z,54.00
2022-08-16T20:55:56.150Z,54.30
2022-08-16T20:58:22.822Z,54.30
2022-08-16T21:00:50.000Z,54.60
2022-08-16T21:03:16.679Z,54.70
2022-08-16T21:05:45.233Z,54.80
2022-08-16T21:08:51.228Z,54.80
2022-08-16T21:11:01.998Z,54.90
2022-08-16T21:13:30.700Z,55.20
2022-08-16T21:15:58.937Z,55.10
2022-08-16T21:18:26.441Z,55.10
2022-08-16T21:20:53.580Z,55.30
2022-08-16T21:23:21.302Z,55.10
2022-08-16T21:25:58.146Z,55.70
2022-08-16T21:28:41.430Z,55.60
2022-08-16T21:31:14.619Z,55.70
2022-08-16T21:33:43.044Z,56.20
2022-08-16T21:36:11.009Z,56.00
2022-08-16T21:38:38.415Z,56.30
2022-08-16T21:41:07.502Z,56.10
2022-08-16T21:43:34.739Z,56.40
2022-08-16T21:46:02.719Z,56.40
2022-08-16T21:48:34.010Z,56.40
2022-08-16T21:51:08.339Z,56.70
2022-08-16T21:53:35.914Z,57.00
2022-08-16T21:56:03.531Z,56.90
2022-08-16T21:58:30.718Z,56.80
2022-08-16T22:00:57.629Z,57.00
2022-08-16T22:03:24.608Z,57.10
2022-08-16T22:06:11.770Z,57.10
2022-08-16T22:08:46.829Z,57.10
2022-08-16T22:11:23.153Z,57.00
2022-08-16T22:13:58.987Z,57.50
2022-08-16T22:16:34.534Z,57.20
2022-08-16T22:19:02.506Z,57.60
2022-08-16T22:21:30.249Z,57.50
2022-08-16T22:23:58.853Z,57.60
2022-08-16T22:26:30.799Z,57.50
2022-08-16T22:28:59.401Z,57.60
2022-08-16T22:31:26.090Z,57.80
2022-08-16T22:33:52.841Z,57.90
2022-08-16T22:36:19.845Z,57.80
2022-08-16T22:38:54.649Z,57.70
2022-08-16T22:41:23.823Z,57.90
2022-08-16T22:43:50.495Z,58.00
2022-08-16T22:46:18.582Z,58.10
2022-08-16T22:48:45.660Z,58.30
2022-08-16T22:51:12.331Z,58.40
2022-08-16T22:53:39.092Z,58.30
2022-08-16T22:56:05.942Z,58.60
2022-08-16T22:58:36.292Z,58.50
2022-08-16T23:01:08.031Z,58.90
2022-08-16T23:03:35.906Z,59.00
2022-08-16T23:06:03.348Z,58.80
2022-08-16T23:08:33.633Z,59.20
2022-08-16T23:11:08.879Z,59.30
2022-08-16T23:13:35.569Z,60.20
2022-08-16T23:16:11.210Z,59.60
2022-08-16T23:18:39.423Z,59.70
2022-08-16T23:21:09.586Z,59.80
2022-08-16T23:23:37.346Z,60.00
2022-08-16T23:26:46.316Z,59.80
2022-08-16T23:28:52.124Z,60.00
2022-08-16T23:31:19.182Z,60.30
2022-08-16T23:33:46.974Z,60.30
2022-08-16T23:36:13.653Z,60.80
2022-08-16T23:38:40.392Z,60.90
2022-08-16T23:41:11.597Z,61.00
2022-08-16T23:43:41.676Z,61.40
2022-08-16T23:46:15.073Z,61.40
2022-08-16T23:49:56.551Z,61.70
2022-08-16T23:51:29.801Z,61.50
2022-08-16T23:53:56.531Z,61.90
2022-08-16T23:56:23.290Z,61.90
2022-08-16T23:58:54.458Z,62.20
